Weather at Gora Klementyeva Airfield

Public forecast

Using degrees Celsius for public forecast. Weather courtesy of forecast.io.

Closest aviation weather report (METAR) to Gora Klementyeva Airfield

Closest report is Anapa Vityazevo Airport, 89.1 nm (165.1 km) E.

2024/07/16 00:30 (retrieved 37 minutes ago)

URKA 160030Z 06005MPS CAVOK 24/12 Q1008 R03/010070 NOSIG RMK QFE752/1003

Closest aviation forecast (TAF) to Gora Klementyeva Airfield

Forecast is more than 6 hours old.

Closest forecast is Graf Ignatievo Air Base, 485.5 nm (899.1 km) WSW.

2024/07/15 18:00 (retrieved 7 hours ago)

TAF LBPG 151700Z 1518/1606 VRB04KT 9999 SKC BY LBSA